Diamond Bluff, Wisconsin
Current Conditions -  °F | °C
As of 2:11 AM on Thursday 29 Jan 2015 (Local Time) from KRGK Reporting Station
Haze Haze  
Wind Chill: 26°   Ceiling: 1000
Heat Index: 32°   Visibility: 3mi
Dew Point: 28°   Wind: 7mph
Humidity: 87%   Direction: 320°NW
Pressure: 29.88"   Gusts: NA
Location:  44.6468°N, 92.567°W
Report Text: KRGK 290811Z AUTO 32006KT 3SM BR OVC010 00/M02 A2988 RMK AO2
Loading
Personal Weather Stations






























Interactive Weather Map New forecast layout! Learn more

10-Day Weather Forecast

Advertisements
Track Severe Weather on mobile